Latest Weather Observations for Gold Coast Seaway

IDQ60801

Issued at 9:02 pm EST Tuesday 24 January 2017 (issued every 30 minutes, with the page automatically refreshed every 10 minutes)

About weather observations | Map of weather stations | Latest weather observations for QLD | Other Formats
Station Details ID: 040764 Name: GOLD COAST SEAWAY Lat: -27.94 Lon: 153.43 Height: 2.98 m
Data from the previous 72 hours. | See also: Recent months at Gold Coast Seaway
Date/Time
EST
Temp
°C
App
Temp
°C
Dew
Point
°C
Rel
Hum
%
Delta-T
°C
Wind Press
QNH
hPa
Press
MSL
hPa
Rain since
9am
mm
Dir  Spd
km/h
Gust
km/h
Spd
kts
Gust
kts
24/08:30pm 24.7 24.9 18.6 69 3.9 NNW 15 20 8 11 1014.4 1014.4 -
24/08:00pm 25.1 24.3 18.5 67 4.2 N 20 30 11 16 1013.9 1013.9 -
24/07:30pm 25.5 23.1 19.9 71 3.6 N 32 35 17 19 1013.5 1013.5 -
24/07:00pm 25.6 23.1 19.7 70 3.8 N 32 37 17 20 1013.3 1013.3 -
24/06:30pm 25.8 23.2 19.4 67 4.1 N 32 37 17 20 1012.8 1012.8 -
24/06:00pm 26.2 23.2 19.1 65 4.6 N 33 39 18 21 1012.5 1012.5 -
24/05:30pm 26.7 23.1 18.6 61 5.2 N 35 41 19 22 1012.3 1012.3 -
24/05:00pm 27.4 24.1 18.4 58 5.7 N 33 39 18 21 1012.1 1012.1 -
24/04:30pm 27.7 23.8 17.8 54 6.3 NNE 35 41 19 22 1012.2 1012.2 -
24/04:00pm 28.4 24.8 17.6 52 6.8 NNE 33 39 18 21 1012.2 1012.2 -
24/03:30pm 29.1 25.1 17.6 50 7.3 NNE 35 41 19 22 1012.2 1012.2 -
24/12:30pm 31.2 28.7 18.9 48 8.0 NNE 30 35 16 19 1013.7 1013.7 0.0
24/12:00pm 31.1 - 17.4 44 8.7 - - - - - 1014.1 1014.1 0.0
24/11:30am 30.2 - 16.6 44 8.5 - - - - - 1014.6 1014.6 0.0
24/11:00am 30.3 - 16.7 44 8.5 - - - - - 1014.9 1014.9 0.0
24/10:30am 28.6 - 16.2 47 7.7 - - - - - 1015.5 1015.5 0.0
24/10:00am 28.6 27.2 16.5 48 7.5 NW 19 26 10 14 1015.9 1015.9 0.0
24/09:30am 28.2 25.6 14.8 44 8.1 NW 22 28 12 15 1016.3 1016.3 0.0
24/09:00am 27.5 25.1 15.5 48 7.3 NW 22 33 12 18 1016.4 1016.4 0.0
24/08:30am 26.9 24.4 16.2 52 6.6 NW 24 35 13 19 1016.7 1016.7 0.0
24/08:00am 26.3 25.1 17.4 58 5.6 NW 20 26 11 14 1016.5 1016.5 0.0
24/07:30am 25.1 25.1 17.1 61 5.0 NW 13 17 7 9 1016.7 1016.7 0.0
24/07:00am 23.8 24.1 17.1 66 4.1 W 11 13 6 7 1016.6 1016.6 0.0
24/06:30am 22.4 23.2 17.3 73 3.1 W 9 13 5 7 1016.4 1016.4 0.0
24/06:00am 21.4 22.1 17.0 76 2.7 W 9 11 5 6 1016.1 1016.1 0.0
24/05:30am 20.2 20.6 16.4 79 2.3 W 9 11 5 6 1015.8 1015.8 0.0
24/05:00am 20.5 20.1 16.3 77 2.5 W 13 15 7 8 1015.7 1015.7 0.0
24/04:30am 20.0 19.9 16.0 78 2.4 WNW 11 13 6 7 1015.4 1015.4 0.0
24/04:00am 20.2 20.1 16.0 77 2.5 WNW 11 13 6 7 1015.3 1015.3 0.0
24/03:30am 20.9 21.0 16.5 76 2.7 WNW 11 15 6 8 1015.2 1015.2 0.0
24/03:00am 21.6 21.4 16.6 73 3.0 WNW 13 15 7 8 1015.2 1015.2 0.0
24/02:30am 21.5 21.4 16.0 71 3.3 WNW 11 13 6 7 1015.2 1015.2 0.0
24/02:00am 21.8 21.4 16.1 70 3.4 W 13 15 7 8 1015.2 1015.2 0.0
24/01:30am 21.7 21.4 16.4 72 3.2 W 13 13 7 7 1015.3 1015.3 0.0
24/01:00am 21.7 21.8 16.6 73 3.1 W 11 13 6 7 1015.5 1015.5 0.0
24/12:30am 22.0 22.2 16.7 72 3.2 W 11 13 6 7 1015.8 1015.8 0.0
24/12:00am 22.3 22.5 16.8 71 3.4 WNW 11 13 6 7 1016.0 1016.0 0.0
 
Date/Time
EST
Temp
°C
App
Temp
°C
Dew
Point
°C
Rel
Hum
%
Delta-T
°C
Wind Press
QNH
hPa
Press
MSL
hPa
Rain since
9am
mm
Dir  Spd
km/h
Gust
km/h
Spd
kts
Gust
kts
23/11:30pm 22.6 23.0 17.3 72 3.3 WNW 11 13 6 7 1016.3 1016.3 0.0
23/11:00pm 23.3 23.7 17.3 69 3.7 NW 11 13 6 7 1016.5 1016.5 0.0
23/10:30pm 24.2 22.8 16.5 62 4.7 N 19 22 10 12 1016.6 1016.6 0.0
23/10:00pm 23.8 22.1 15.8 61 4.8 NNE 19 22 10 12 1016.7 1016.7 0.0
23/09:30pm 24.1 23.2 16.9 64 4.4 NE 17 20 9 11 1016.7 1016.7 0.0
23/09:00pm 24.1 23.3 16.1 61 4.9 NE 15 19 8 10 1016.7 1016.7 0.0
23/08:30pm 24.3 23.2 16.3 61 4.9 NE 17 20 9 11 1016.6 1016.6 0.0
23/08:00pm 24.2 23.2 16.5 62 4.7 NE 17 20 9 11 1016.4 1016.4 0.0
23/07:30pm 24.5 23.7 18.0 67 4.1 NE 19 22 10 12 1016.1 1016.1 0.0
23/07:00pm 24.7 24.2 17.9 66 4.3 NE 17 20 9 11 1016.0 1016.0 0.0
23/06:30pm 25.0 24.6 18.0 65 4.4 NE 17 20 9 11 1015.8 1015.8 0.0
23/06:00pm 25.3 24.9 18.0 64 4.6 NE 17 20 9 11 1015.4 1015.4 0.0
23/05:30pm 26.1 25.6 17.7 60 5.3 NE 17 22 9 12 1014.9 1014.9 0.0
23/05:00pm 26.8 26.8 18.1 59 5.5 ENE 15 19 8 10 1014.6 1014.6 0.0
23/04:30pm 26.9 26.7 17.7 57 5.8 ENE 15 19 8 10 1014.5 1014.5 0.0
23/04:00pm 27.3 26.9 18.0 56 5.9 E 17 20 9 11 1014.6 1014.6 0.0
23/03:30pm 27.9 28.4 17.4 52 6.6 E 11 13 6 7 1014.8 1014.8 0.0
23/03:00pm 27.9 28.0 16.5 50 7.1 ENE 11 15 6 8 1014.9 1014.9 0.0
23/02:30pm 27.8 28.0 16.7 50 6.9 ESE 11 15 6 8 1015.1 1015.1 0.0
23/02:00pm 29.1 29.8 17.9 50 7.1 ESE 11 15 6 8 1015.3 1015.3 0.0
23/01:30pm 28.7 28.1 15.6 45 8.0 ESE 13 17 7 9 1015.5 1015.5 0.0
23/01:00pm 28.8 28.3 16.0 45 7.9 ESE 13 15 7 8 1015.8 1015.8 0.0
23/12:30pm 27.9 27.6 14.5 44 8.1 ENE 9 11 5 6 1016.1 1016.1 0.0
23/12:00pm 27.6 26.9 15.3 47 7.5 ENE 13 15 7 8 1016.3 1016.3 0.0
23/11:30am 27.3 26.5 15.0 47 7.4 ENE 13 17 7 9 1016.6 1016.6 0.0
23/11:00am 27.6 26.8 16.2 49 7.0 E 15 19 8 10 1016.8 1016.8 0.0
23/10:30am 27.0 25.9 15.4 49 7.1 ESE 15 19 8 10 1017.2 1017.2 0.0
23/10:00am 26.8 26.4 18.1 59 5.5 SSE 17 20 9 11 1017.3 1017.3 0.0
23/09:30am 26.1 25.3 18.5 63 4.8 SSE 20 28 11 15 1017.3 1017.3 0.0
23/09:00am 24.9 24.3 17.6 64 4.6 SSE 17 20 9 11 1017.1 1017.1 0.0
23/08:30am 24.6 23.6 17.6 65 4.4 SSE 19 24 10 13 1017.0 1017.0 0.0
23/08:00am 24.5 23.5 17.5 65 4.4 SSE 19 24 10 13 1016.8 1016.8 0.0
23/07:30am 24.5 23.5 18.0 67 4.1 SSE 20 24 11 13 1016.8 1016.8 0.0
23/07:00am 23.9 23.1 17.9 69 3.7 S 19 26 10 14 1016.7 1016.7 0.0
23/06:30am 23.2 24.0 18.1 73 3.2 S 11 17 6 9 1016.4 1016.4 0.0
23/06:00am 22.5 23.0 17.4 73 3.1 S 11 13 6 7 1015.9 1015.9 0.0
23/05:30am 22.9 22.6 17.4 71 3.4 SSE 15 24 8 13 1015.7 1015.7 0.0
23/05:00am 23.4 21.9 16.4 64 4.3 SE 19 24 10 13 1015.5 1015.5 0.0
23/04:30am 22.6 22.6 17.1 71 3.4 SE 13 17 7 9 1015.3 1015.3 0.0
23/04:00am 23.4 22.6 16.2 64 4.4 SE 15 20 8 11 1015.0 1015.0 0.0
23/03:30am 23.6 21.8 16.9 66 4.1 ESE 22 28 12 15 1014.8 1014.8 0.0
23/03:00am 23.8 22.7 17.8 69 3.7 E 20 26 11 14 1014.7 1014.7 0.0
23/02:30am 23.8 21.8 17.5 68 3.9 E 24 30 13 16 1014.7 1014.7 0.0
23/02:00am 23.7 22.2 18.6 73 3.2 ESE 24 28 13 15 1014.9 1014.9 0.0
23/01:30am 23.7 22.4 18.1 71 3.5 ESE 22 28 12 15 1015.1 1015.1 0.0
23/01:00am 23.9 22.3 18.3 71 3.5 ESE 24 30 13 16 1015.2 1015.2 0.0
23/12:30am 23.6 21.5 18.0 71 3.5 ESE 26 30 14 16 1015.6 1015.6 0.0
23/12:00am 23.6 20.8 18.3 72 3.3 SE 30 33 16 18 1015.7 1015.7 0.0
 
Date/Time
EST
Temp
°C
App
Temp
°C
Dew
Point
°C
Rel
Hum
%
Delta-T
°C
Wind Press
QNH
hPa
Press
MSL
hPa
Rain since
9am
mm
Dir  Spd
km/h
Gust
km/h
Spd
kts
Gust
kts
22/11:30pm 23.7 21.2 18.8 74 3.1 SE 30 33 16 18 1016.1 1016.1 0.0
22/11:00pm 23.8 21.5 18.4 72 3.4 ESE 28 33 15 18 1016.2 1016.2 0.0
22/10:30pm 23.8 21.6 18.7 73 3.2 SE 28 32 15 17 1016.5 1016.5 0.0
22/10:00pm 23.8 21.3 18.0 70 3.6 SE 28 33 15 18 1016.7 1016.7 0.0
22/09:30pm 23.8 21.1 18.4 72 3.4 ESE 30 35 16 19 1016.7 1016.7 0.0
22/09:00pm 23.6 20.9 18.5 73 3.2 SE 30 35 16 19 1016.5 1016.5 0.0
22/08:30pm 23.7 21.5 18.6 73 3.2 SE 28 37 15 20 1016.4 1016.4 0.0
22/08:00pm 23.7 21.3 19.0 75 3.0 SE 30 33 16 18 1016.3 1016.3 0.0
22/07:30pm 23.8 21.6 18.7 73 3.2 SE 28 35 15 19 1016.1 1016.1 0.0
22/07:00pm 24.0 21.3 18.4 71 3.5 SE 30 35 16 19 1015.9 1015.9 0.0
22/06:30pm 24.0 21.4 18.6 72 3.4 SE 30 35 16 19 1015.6 1015.6 0.0
22/06:00pm 24.5 21.5 18.7 70 3.7 SE 32 37 17 20 1015.2 1015.2 0.0
22/05:30pm 25.4 22.7 19.3 69 3.9 SE 32 35 17 19 1014.9 1014.9 0.0
22/05:00pm 25.5 22.5 18.7 66 4.3 SE 32 37 17 20 1014.6 1014.6 0.0
22/04:30pm 26.5 23.8 18.4 61 5.1 SE 30 37 16 20 1014.5 1014.5 0.0
22/04:00pm 27.0 24.0 18.6 60 5.4 SE 32 37 17 20 1014.6 1014.6 0.0
22/03:30pm 27.3 24.9 19.1 61 5.3 SE 30 35 16 19 1014.9 1014.9 0.0
22/03:00pm 27.6 24.8 19.1 59 5.5 SE 32 37 17 20 1015.0 1015.0 0.0
22/02:30pm 27.4 24.7 19.2 61 5.3 SE 32 37 17 20 1015.2 1015.2 0.0
22/02:00pm 27.9 25.1 19.1 58 5.7 SE 32 37 17 20 1015.3 1015.3 0.0
22/01:30pm 28.1 25.0 18.8 57 6.0 SE 33 39 18 21 1015.5 1015.5 0.0
22/01:00pm 27.9 25.0 18.9 58 5.8 SE 32 37 17 20 1015.8 1015.8 0.0
22/12:30pm 27.7 25.1 19.5 61 5.3 SE 32 37 17 20 1016.1 1016.1 0.0
22/12:00pm 27.2 24.4 19.5 62 5.0 SE 33 43 18 23 1016.2 1016.2 0.0
22/11:30am 27.5 25.4 20.6 66 4.5 SE 32 35 17 19 1016.3 1016.3 0.0
22/11:00am 25.9 24.0 20.2 71 3.7 SE 30 41 16 22 1016.4 1016.4 0.0
22/10:59am 25.6 24.1 20.2 72 3.5 SE 28 41 15 22 1016.4 1016.4 0.0
22/10:30am 26.0 27.0 21.7 77 2.9 SE 19 20 10 11 1016.7 1016.7 0.0
22/10:00am 24.5 21.9 20.6 79 2.5 SE 35 39 19 21 1016.8 1016.8 0.0
22/09:30am 24.0 21.6 20.3 80 2.4 SE 33 43 18 23 1016.6 1016.6 0.0
22/09:00am 24.6 24.2 20.1 76 2.9 S 22 32 12 17 1016.5 1016.5 -
22/08:30am 23.2 22.3 19.8 81 2.2 S 24 33 13 18 1016.7 1016.7 -
22/08:00am 22.9 24.2 20.1 84 1.8 S 13 19 7 10 1016.4 1016.4 -
22/07:30am 22.4 22.8 19.8 85 1.7 S 17 24 9 13 1016.2 1016.2 -
22/07:00am 22.8 22.7 19.6 82 2.0 S 19 32 10 17 1015.8 1015.8 -
22/06:30am 22.6 23.1 20.1 86 1.6 S 17 22 9 12 1015.6 1015.6 -
22/06:00am 22.3 22.4 20.0 87 1.5 S 19 24 10 13 1015.1 1015.1 3.6
22/05:30am 22.4 22.3 19.9 86 1.6 S 20 30 11 16 1014.6 1014.6 3.6
22/05:00am 22.1 21.5 19.8 87 1.5 S 22 30 12 16 1013.9 1013.9 3.6
22/04:30am 22.2 21.1 21.0 93 0.8 SSE 28 33 15 18 1013.5 1013.5 3.6
22/04:00am 22.0 22.7 20.5 91 1.0 S 17 26 9 14 1013.2 1013.2 3.6
22/03:30am 21.9 22.6 21.2 96 0.5 S 19 33 10 18 1013.0 1013.0 3.6
22/03:00am 22.0 20.3 21.3 96 0.5 S 32 35 17 19 1013.1 1013.1 3.6
22/02:30am 22.2 20.7 21.7 97 0.3 SSE 32 37 17 20 1013.2 1013.2 3.6
22/02:00am 22.1 20.7 21.9 99 0.1 SSE 32 43 17 23 1013.3 1013.3 3.6
22/01:30am 21.9 20.8 21.7 99 0.1 SSE 30 37 16 20 1013.4 1013.4 3.6
22/01:00am 22.0 20.5 21.8 99 0.1 SSE 32 39 17 21 1013.4 1013.4 3.4
22/12:30am 21.6 22.2 21.4 99 0.1 S 20 30 11 16 1013.4 1013.4 3.4
22/12:00am 21.9 21.9 21.7 99 0.1 S 24 37 13 20 1013.6 1013.6 3.4
 
Date/Time
EST
Temp
°C
App
Temp
°C
Dew
Point
°C
Rel
Hum
%
Delta-T
°C
Wind Press
QNH
hPa
Press
MSL
hPa
Rain since
9am
mm
Dir  Spd
km/h
Gust
km/h
Spd
kts
Gust
kts
21/11:30pm 22.1 21.5 21.9 99 0.1 S 28 33 15 18 1013.9 1013.9 3.4
21/11:00pm 22.1 21.1 21.9 99 0.1 SSE 30 39 16 21 1014.0 1014.0 3.4
21/10:30pm 22.6 21.8 22.4 99 0.1 S 30 37 16 20 1014.2 1014.2 3.4
21/10:00pm 22.3 21.4 22.1 99 0.1 SSE 30 37 16 20 1014.1 1014.1 3.4
21/09:30pm 22.5 20.0 22.3 99 0.1 SSE 39 48 21 26 1014.0 1014.0 3.4

Other Formats:

Comma delimited format used in spreadsheet applications
http://www.bom.gov.au/fwo/IDQ60801/IDQ60801.94580.axf

JavaScript Object Notation format (JSON) in row-major order
http://www.bom.gov.au/fwo/IDQ60801/IDQ60801.94580.json